Terminal Aerodrome Forecast
Issued by NWS Atlanta, GA

Current Version | Previous Version | Text Only | Print | Product List | Glossary On
Versions: 1 2 3 4 5 6 7 8 9 10 11 12 13 14 15 16 17 18 19 20
000
FTUS42 KFFC 030500 RRA
TAFMCN
TAF
KMCN 030546Z 0306/0406 00000KT P6SM SCT050 BKN150
     FM031600 VRB03KT P6SM SCT030 SCT150
     FM031900 14005KT P6SM BKN045 PROB30 0319/0323 4SM -TSRA
      BKN040CB
     FM040100 00000KT P6SM FEW050 BKN120=

USA.gov is the U.S. government's official web portal to all federal, state and local government web resources and services.